PWSweather.com
Personal Weather Stations
Station Observations
PICKERING
North Yorkshire, PickeringGB

North YorkshirePickeringGB

Lat: 54.2494, Lon: -0.7725

Elevation: 192

Station Type: Oregon Scientific WMR100

http://www.yorkshirewalker.co.uk/weather/

High Low Average
Temperature 39.7°F4.3°C 27.1°F-2.7°C 32.3°F0.2°C
Dew Point 33.8°F1.0°C 21.2°F-6.0°C 26.7°F-2.9°C
Winds 7.8 mph 12.6 kmh Calm Calm 3.0 mph ENE4.8 kmh ENE
Wind Gusts 15.2 mph24.5 kmh -- 5.0 mph8.0 kmh
Humidity 84% 76% 81%
Pressure 29.06 in984.1 mb 28.62 in969.2 mb -
Precipitation 0.11 in2.8 mm - -
Hour Temp Dew Point Humidity Winds Wind Gusts Pressure Precip Precip Rate Daily Precip Total
12:00 AM 27.3°F-2.6°C 21.2°F-6.0°C 80% 2.7 mph NE4.3 kmh NE 3.8 mph6.1 kmh 28.80 in975.3 mb 0.00 in0.0 mm 0.00 in0.0 mm 0.00 in0.0 mm
12:05 AM 27.1°F-2.7°C 21.2°F-6.0°C 80% 2.5 mph NE4.0 kmh NE 3.4 mph5.5 kmh 28.80 in975.3 mb 0.00 in0.0 mm 0.00 in0.0 mm 0.00 in0.0 mm
12:10 AM 27.1°F-2.7°C 21.2°F-6.0°C 80% 2.4 mph NE3.9 kmh NE 3.6 mph5.8 kmh 28.80 in975.3 mb 0.00 in0.0 mm 0.00 in0.0 mm 0.00 in0.0 mm
12:15 AM 27.1°F-2.7°C 21.2°F-6.0°C 80% 2.1 mph NE3.4 kmh NE 3.6 mph5.8 kmh 28.80 in975.3 mb 0.00 in0.0 mm 0.00 in0.0 mm 0.00 in0.0 mm
12:20 AM 27.3°F-2.6°C 21.2°F-6.0°C 80% 2.4 mph NE3.9 kmh NE 3.8 mph6.1 kmh 28.80 in975.3 mb 0.00 in0.0 mm 0.00 in0.0 mm 0.00 in0.0 mm
12:25 AM 27.3°F-2.6°C 21.2°F-6.0°C 80% 1.9 mph NE3.1 kmh NE 3.8 mph6.1 kmh 28.80 in975.3 mb 0.00 in0.0 mm 0.00 in0.0 mm 0.00 in0.0 mm
12:30 AM 27.3°F-2.6°C 21.2°F-6.0°C 80% 1.8 mph NE2.9 kmh NE 3.4 mph5.5 kmh 28.80 in975.3 mb 0.00 in0.0 mm 0.00 in0.0 mm 0.00 in0.0 mm
12:35 AM 27.3°F-2.6°C 21.2°F-6.0°C 80% 1.8 mph NE2.9 kmh NE 3.4 mph5.5 kmh 28.80 in975.3 mb 0.00 in0.0 mm 0.00 in0.0 mm 0.00 in0.0 mm
12:40 AM 27.3°F-2.6°C 21.2°F-6.0°C 80% 1.8 mph NNE2.9 kmh NNE 3.6 mph5.8 kmh 28.80 in975.3 mb 0.00 in0.0 mm 0.00 in0.0 mm 0.00 in0.0 mm
12:45 AM 27.3°F-2.6°C 21.2°F-6.0°C 79% 2.0 mph NNE3.2 kmh NNE 3.6 mph5.8 kmh 28.80 in975.3 mb 0.00 in0.0 mm 0.00 in0.0 mm 0.00 in0.0 mm
12:50 AM 27.5°F-2.5°C 21.2°F-6.0°C 79% 2.1 mph NE3.4 kmh NE 3.8 mph6.1 kmh 28.80 in975.3 mb 0.00 in0.0 mm 0.00 in0.0 mm 0.00 in0.0 mm
12:55 AM 27.7°F-2.4°C 21.2°F-6.0°C 79% 2.5 mph NE4.0 kmh NE 3.8 mph6.1 kmh 28.80 in975.3 mb 0.00 in0.0 mm 0.00 in0.0 mm 0.00 in0.0 mm
01:00 AM 27.7°F-2.4°C 21.2°F-6.0°C 79% 2.5 mph NE4.0 kmh NE 3.8 mph6.1 kmh 28.80 in975.3 mb 0.00 in0.0 mm 0.00 in0.0 mm 0.00 in0.0 mm
01:05 AM 27.7°F-2.4°C 21.2°F-6.0°C 79% 2.4 mph NE3.9 kmh NE 3.6 mph5.8 kmh 28.80 in975.3 mb 0.00 in0.0 mm 0.00 in0.0 mm 0.00 in0.0 mm
01:10 AM 27.7°F-2.4°C 21.2°F-6.0°C 79% 2.4 mph NE3.9 kmh NE 4.3 mph6.9 kmh 28.80 in975.3 mb 0.00 in0.0 mm 0.00 in0.0 mm 0.00 in0.0 mm
01:15 AM 27.9°F-2.3°C 21.2°F-6.0°C 79% 3.2 mph NE5.1 kmh NE 5.6 mph9.0 kmh 28.77 in974.3 mb 0.00 in0.0 mm 0.00 in0.0 mm 0.00 in0.0 mm
01:20 AM 27.9°F-2.3°C 21.2°F-6.0°C 79% 3.4 mph NE5.5 kmh NE 5.6 mph9.0 kmh 28.77 in974.3 mb 0.00 in0.0 mm 0.00 in0.0 mm 0.00 in0.0 mm
01:25 AM 27.7°F-2.4°C 21.2°F-6.0°C 79% 2.9 mph NE4.7 kmh NE 4.3 mph6.9 kmh 28.77 in974.3 mb 0.00 in0.0 mm 0.00 in0.0 mm 0.00 in0.0 mm
01:30 AM 27.7°F-2.4°C 21.2°F-6.0°C 79% 3.3 mph NE5.3 kmh NE 4.9 mph7.9 kmh 28.80 in975.3 mb 0.00 in0.0 mm 0.00 in0.0 mm 0.00 in0.0 mm
01:35 AM 27.5°F-2.5°C 21.2°F-6.0°C 79% 3.7 mph NE6.0 kmh NE 5.6 mph9.0 kmh 28.80 in975.3 mb 0.00 in0.0 mm 0.00 in0.0 mm 0.00 in0.0 mm
01:40 AM 27.7°F-2.4°C 21.2°F-6.0°C 79% 3.1 mph NE5.0 kmh NE 5.6 mph9.0 kmh 28.80 in975.3 mb 0.00 in0.0 mm 0.00 in0.0 mm 0.00 in0.0 mm
01:45 AM 27.9°F-2.3°C 21.2°F-6.0°C 79% 2.9 mph NE4.7 kmh NE 3.8 mph6.1 kmh 28.80 in975.3 mb 0.00 in0.0 mm 0.00 in0.0 mm 0.00 in0.0 mm
01:50 AM 28.0°F-2.2°C 21.2°F-6.0°C 79% 3.6 mph NE5.8 kmh NE 5.4 mph8.7 kmh 28.80 in975.3 mb 0.00 in0.0 mm 0.00 in0.0 mm 0.00 in0.0 mm
01:55 AM 28.0°F-2.2°C 21.2°F-6.0°C 79% 3.7 mph NE6.0 kmh NE 5.4 mph8.7 kmh 28.80 in975.3 mb 0.00 in0.0 mm 0.00 in0.0 mm 0.00 in0.0 mm
02:00 AM 27.9°F-2.3°C 21.2°F-6.0°C 79% 3.2 mph NE5.1 kmh NE 4.7 mph7.6 kmh 28.77 in974.3 mb 0.00 in0.0 mm 0.00 in0.0 mm 0.00 in0.0 mm
02:05 AM 28.0°F-2.2°C 21.2°F-6.0°C 79% 2.8 mph NE4.5 kmh NE 3.8 mph6.1 kmh 28.77 in974.3 mb 0.00 in0.0 mm 0.00 in0.0 mm 0.00 in0.0 mm
02:10 AM 27.9°F-2.3°C 21.2°F-6.0°C 79% 2.3 mph NE3.7 kmh NE 3.6 mph5.8 kmh 28.77 in974.3 mb 0.00 in0.0 mm 0.00 in0.0 mm 0.00 in0.0 mm
02:15 AM 27.7°F-2.4°C 21.2°F-6.0°C 79% 2.4 mph NE3.9 kmh NE 3.6 mph5.8 kmh 28.77 in974.3 mb 0.00 in0.0 mm 0.00 in0.0 mm 0.00 in0.0 mm
02:20 AM 27.9°F-2.3°C 21.2°F-6.0°C 79% 2.8 mph NE4.5 kmh NE 4.0 mph6.4 kmh 28.77 in974.3 mb 0.00 in0.0 mm 0.00 in0.0 mm 0.00 in0.0 mm
02:25 AM 27.7°F-2.4°C 21.2°F-6.0°C 79% 2.8 mph NE4.5 kmh NE 4.0 mph6.4 kmh 28.77 in974.3 mb 0.00 in0.0 mm 0.00 in0.0 mm 0.00 in0.0 mm
02:30 AM 27.9°F-2.3°C 21.2°F-6.0°C 79% 2.8 mph NE4.5 kmh NE 4.3 mph6.9 kmh 28.74 in973.2 mb 0.00 in0.0 mm 0.00 in0.0 mm 0.00 in0.0 mm
02:35 AM 27.9°F-2.3°C 21.2°F-6.0°C 79% 2.9 mph NE4.7 kmh NE 4.3 mph6.9 kmh 28.74 in973.2 mb 0.00 in0.0 mm 0.00 in0.0 mm 0.00 in0.0 mm
02:40 AM 27.9°F-2.3°C 21.2°F-6.0°C 79% 3.3 mph NE5.3 kmh NE 4.3 mph6.9 kmh 28.74 in973.2 mb 0.00 in0.0 mm 0.00 in0.0 mm 0.00 in0.0 mm
02:45 AM 27.9°F-2.3°C 21.2°F-6.0°C 79% 3.7 mph ENE6.0 kmh ENE 4.7 mph7.6 kmh 28.80 in975.3 mb 0.00 in0.0 mm 0.00 in0.0 mm 0.00 in0.0 mm
02:50 AM 28.0°F-2.2°C 21.2°F-6.0°C 79% 3.6 mph ENE5.8 kmh ENE 4.7 mph7.6 kmh 28.80 in975.3 mb 0.00 in0.0 mm 0.00 in0.0 mm 0.00 in0.0 mm
02:55 AM 28.2°F-2.1°C 21.2°F-6.0°C 79% 3.3 mph NE5.3 kmh NE 4.9 mph7.9 kmh 28.80 in975.3 mb 0.00 in0.0 mm 0.00 in0.0 mm 0.00 in0.0 mm
03:00 AM 28.0°F-2.2°C 21.2°F-6.0°C 78% 2.9 mph NE4.7 kmh NE 4.9 mph7.9 kmh 28.80 in975.3 mb 0.00 in0.0 mm 0.00 in0.0 mm 0.00 in0.0 mm
03:05 AM 27.9°F-2.3°C 21.2°F-6.0°C 78% 2.7 mph NE4.3 kmh NE 4.0 mph6.4 kmh 28.80 in975.3 mb 0.00 in0.0 mm 0.00 in0.0 mm 0.00 in0.0 mm
03:10 AM 27.9°F-2.3°C 21.2°F-6.0°C 78% 2.2 mph NE3.5 kmh NE 2.9 mph4.7 kmh 28.80 in975.3 mb 0.00 in0.0 mm 0.00 in0.0 mm 0.00 in0.0 mm
03:15 AM 28.0°F-2.2°C 21.2°F-6.0°C 78% 2.2 mph NE3.5 kmh NE 4.9 mph7.9 kmh 28.80 in975.3 mb 0.00 in0.0 mm 0.00 in0.0 mm 0.00 in0.0 mm
03:20 AM 28.0°F-2.2°C 21.2°F-6.0°C 78% 2.6 mph NE4.2 kmh NE 4.9 mph7.9 kmh 28.80 in975.3 mb 0.00 in0.0 mm 0.00 in0.0 mm 0.00 in0.0 mm
03:25 AM 28.4°F-2.0°C 21.2°F-6.0°C 79% 4.3 mph NE6.9 kmh NE 7.6 mph12.2 kmh 28.80 in975.3 mb 0.00 in0.0 mm 0.00 in0.0 mm 0.00 in0.0 mm
03:30 AM 29.3°F-1.5°C 23.0°F-5.0°C 79% 4.8 mph NE7.7 kmh NE 7.6 mph12.2 kmh 28.80 in975.3 mb 0.00 in0.0 mm 0.00 in0.0 mm 0.00 in0.0 mm
03:35 AM 29.1°F-1.6°C 23.0°F-5.0°C 79% 4.0 mph NE6.4 kmh NE 5.6 mph9.0 kmh 28.80 in975.3 mb 0.00 in0.0 mm 0.00 in0.0 mm 0.00 in0.0 mm
03:40 AM 28.9°F-1.7°C 23.0°F-5.0°C 80% 3.6 mph NE5.8 kmh NE 6.5 mph10.5 kmh 28.80 in975.3 mb 0.00 in0.0 mm 0.00 in0.0 mm 0.00 in0.0 mm
03:45 AM 29.3°F-1.5°C 23.0°F-5.0°C 80% 4.2 mph ENE6.8 kmh ENE 6.5 mph10.5 kmh 28.80 in975.3 mb 0.00 in0.0 mm 0.00 in0.0 mm 0.00 in0.0 mm
03:50 AM 29.1°F-1.6°C 23.0°F-5.0°C 80% 4.2 mph ENE6.8 kmh ENE 6.5 mph10.5 kmh 28.80 in975.3 mb 0.00 in0.0 mm 0.00 in0.0 mm 0.00 in0.0 mm
03:55 AM 29.3°F-1.5°C 23.0°F-5.0°C 80% 3.7 mph NE6.0 kmh NE 6.5 mph10.5 kmh 28.80 in975.3 mb 0.00 in0.0 mm 0.00 in0.0 mm 0.00 in0.0 mm
04:00 AM 29.3°F-1.5°C 23.0°F-5.0°C 80% 3.5 mph NE5.6 kmh NE 4.9 mph7.9 kmh 28.80 in975.3 mb 0.00 in0.0 mm 0.00 in0.0 mm 0.00 in0.0 mm
04:05 AM 29.1°F-1.6°C 23.0°F-5.0°C 80% 3.1 mph NE5.0 kmh NE 4.3 mph6.9 kmh 28.80 in975.3 mb 0.00 in0.0 mm 0.00 in0.0 mm 0.00 in0.0 mm
04:10 AM 29.3°F-1.5°C 23.0°F-5.0°C 80% 2.6 mph NNE4.2 kmh NNE 3.6 mph5.8 kmh 28.80 in975.3 mb 0.00 in0.0 mm 0.00 in0.0 mm 0.00 in0.0 mm
04:15 AM 29.7°F-1.3°C 23.0°F-5.0°C 80% 2.8 mph NNE4.5 kmh NNE 4.0 mph6.4 kmh 28.77 in974.3 mb 0.00 in0.0 mm 0.00 in0.0 mm 0.00 in0.0 mm
04:20 AM 29.7°F-1.3°C 23.0°F-5.0°C 80% 3.1 mph NE5.0 kmh NE 4.0 mph6.4 kmh 28.77 in974.3 mb 0.00 in0.0 mm 0.00 in0.0 mm 0.00 in0.0 mm
04:25 AM 29.8°F-1.2°C 23.0°F-5.0°C 80% 3.1 mph NE5.0 kmh NE 4.0 mph6.4 kmh 28.77 in974.3 mb 0.00 in0.0 mm 0.00 in0.0 mm 0.00 in0.0 mm
04:30 AM 30.6°F-0.8°C 23.0°F-5.0°C 80% 3.6 mph ENE5.8 kmh ENE 10.1 mph16.3 kmh 28.80 in975.3 mb 0.00 in0.0 mm 0.00 in0.0 mm 0.00 in0.0 mm
04:35 AM 31.1°F-0.5°C 24.8°F-4.0°C 80% 5.9 mph ENE9.5 kmh ENE 10.5 mph16.9 kmh 28.80 in975.3 mb 0.00 in0.0 mm 0.00 in0.0 mm 0.00 in0.0 mm
04:40 AM 31.5°F-0.3°C 24.8°F-4.0°C 81% 6.4 mph NE10.3 kmh NE 10.5 mph16.9 kmh 28.80 in975.3 mb 0.00 in0.0 mm 0.00 in0.0 mm 0.00 in0.0 mm
04:45 AM 31.6°F-0.2°C 24.8°F-4.0°C 81% 5.0 mph NNE8.0 kmh NNE 7.4 mph11.9 kmh 28.77 in974.3 mb 0.00 in0.0 mm 0.00 in0.0 mm 0.00 in0.0 mm
04:50 AM 31.8°F-0.1°C 26.6°F-3.0°C 82% 4.2 mph NE6.8 kmh NE 7.4 mph11.9 kmh 28.77 in974.3 mb 0.00 in0.0 mm 0.00 in0.0 mm 0.00 in0.0 mm
04:55 AM 32.0°F0.0°C 26.6°F-3.0°C 82% 4.4 mph NE7.1 kmh NE 7.4 mph11.9 kmh 28.77 in974.3 mb 0.00 in0.0 mm 0.00 in0.0 mm 0.00 in0.0 mm
05:00 AM 32.0°F0.0°C 26.6°F-3.0°C 82% 5.0 mph NE8.0 kmh NE 6.5 mph10.5 kmh 28.80 in975.3 mb 0.00 in0.0 mm 0.00 in0.0 mm 0.00 in0.0 mm
05:05 AM 32.4°F0.2°C 28.4°F-2.0°C 82% 5.7 mph NE9.2 kmh NE 10.5 mph16.9 kmh 28.80 in975.3 mb 0.00 in0.0 mm 0.00 in0.0 mm 0.00 in0.0 mm
05:10 AM 32.4°F0.2°C 28.4°F-2.0°C 82% 6.6 mph ENE10.6 kmh ENE 10.5 mph16.9 kmh 28.80 in975.3 mb 0.00 in0.0 mm 0.00 in0.0 mm 0.00 in0.0 mm
05:15 AM 32.4°F0.2°C 28.4°F-2.0°C 82% 6.8 mph ENE10.9 kmh ENE 10.3 mph16.6 kmh 28.77 in974.3 mb 0.00 in0.0 mm 0.00 in0.0 mm 0.00 in0.0 mm
05:20 AM 32.2°F0.1°C 28.4°F-2.0°C 82% 5.5 mph NE8.9 kmh NE 7.8 mph12.6 kmh 28.77 in974.3 mb 0.00 in0.0 mm 0.00 in0.0 mm 0.00 in0.0 mm
05:25 AM 32.2°F0.1°C 28.4°F-2.0°C 82% 3.7 mph NE6.0 kmh NE 7.4 mph11.9 kmh 28.77 in974.3 mb 0.00 in0.0 mm 0.00 in0.0 mm 0.00 in0.0 mm
05:30 AM 32.2°F0.1°C 28.4°F-2.0°C 82% 3.8 mph NE6.1 kmh NE 5.8 mph9.3 kmh 28.77 in974.3 mb 0.00 in0.0 mm 0.00 in0.0 mm 0.00 in0.0 mm
05:35 AM 32.2°F0.1°C 28.4°F-2.0°C 82% 3.8 mph NE6.1 kmh NE 5.8 mph9.3 kmh 28.77 in974.3 mb 0.00 in0.0 mm 0.00 in0.0 mm 0.00 in0.0 mm
05:40 AM 32.2°F0.1°C 28.4°F-2.0°C 82% 3.6 mph NNE5.8 kmh NNE 6.0 mph9.7 kmh 28.77 in974.3 mb 0.00 in0.0 mm 0.00 in0.0 mm 0.00 in0.0 mm
05:45 AM 32.4°F0.2°C 28.4°F-2.0°C 82% 3.9 mph NNE6.3 kmh NNE 6.0 mph9.7 kmh 28.62 in969.2 mb 0.00 in0.0 mm 0.00 in0.0 mm 0.00 in0.0 mm
05:50 AM 32.4°F0.2°C 28.4°F-2.0°C 82% 4.3 mph NE6.9 kmh NE 6.5 mph10.5 kmh 28.62 in969.2 mb 0.00 in0.0 mm 0.00 in0.0 mm 0.00 in0.0 mm
05:55 AM 32.5°F0.3°C 28.4°F-2.0°C 82% 4.5 mph NNE7.2 kmh NNE 6.5 mph10.5 kmh 28.62 in969.2 mb 0.00 in0.0 mm 0.00 in0.0 mm 0.00 in0.0 mm
06:00 AM 32.5°F0.3°C 28.4°F-2.0°C 83% 5.0 mph NE8.0 kmh NE 8.1 mph13.0 kmh 28.80 in975.3 mb 0.00 in0.0 mm 0.00 in0.0 mm 0.00 in0.0 mm
06:05 AM 32.7°F0.4°C 28.4°F-2.0°C 83% 4.9 mph NE7.9 kmh NE 8.1 mph13.0 kmh 28.80 in975.3 mb 0.00 in0.0 mm 0.00 in0.0 mm 0.00 in0.0 mm
06:10 AM 32.4°F0.2°C 28.4°F-2.0°C 83% 3.8 mph NE6.1 kmh NE 5.6 mph9.0 kmh 28.80 in975.3 mb 0.00 in0.0 mm 0.00 in0.0 mm 0.00 in0.0 mm
06:15 AM 32.4°F0.2°C 28.4°F-2.0°C 83% 2.6 mph NE4.2 kmh NE 4.3 mph6.9 kmh 28.80 in975.3 mb 0.00 in0.0 mm 0.00 in0.0 mm 0.00 in0.0 mm
06:20 AM 32.4°F0.2°C 28.4°F-2.0°C 83% 1.9 mph NE3.1 kmh NE 4.3 mph6.9 kmh 28.80 in975.3 mb 0.00 in0.0 mm 0.00 in0.0 mm 0.00 in0.0 mm
06:25 AM 32.4°F0.2°C 28.4°F-2.0°C 83% 2.0 mph NE3.2 kmh NE 3.6 mph5.8 kmh 28.80 in975.3 mb 0.00 in0.0 mm 0.00 in0.0 mm 0.00 in0.0 mm
06:30 AM 32.5°F0.3°C 28.4°F-2.0°C 83% 2.9 mph NNE4.7 kmh NNE 4.9 mph7.9 kmh 28.80 in975.3 mb 0.00 in0.0 mm 0.00 in0.0 mm 0.00 in0.0 mm
06:35 AM 32.7°F0.4°C 28.4°F-2.0°C 83% 3.4 mph NNE5.5 kmh NNE 4.9 mph7.9 kmh 28.80 in975.3 mb 0.00 in0.0 mm 0.00 in0.0 mm 0.00 in0.0 mm
06:40 AM 32.7°F0.4°C 28.4°F-2.0°C 83% 3.0 mph NE4.8 kmh NE 4.7 mph7.6 kmh 28.80 in975.3 mb 0.00 in0.0 mm 0.00 in0.0 mm 0.00 in0.0 mm
06:45 AM 32.9°F0.5°C 28.4°F-2.0°C 83% 3.4 mph NE5.5 kmh NE 4.9 mph7.9 kmh 28.82 in976.0 mb 0.00 in0.0 mm 0.00 in0.0 mm 0.00 in0.0 mm
06:50 AM 32.9°F0.5°C 28.4°F-2.0°C 83% 4.3 mph NNE6.9 kmh NNE 5.6 mph9.0 kmh 28.82 in976.0 mb 0.00 in0.0 mm 0.00 in0.0 mm 0.00 in0.0 mm
06:55 AM 32.9°F0.5°C 28.4°F-2.0°C 83% 4.7 mph NE7.6 kmh NE 7.6 mph12.2 kmh 28.82 in976.0 mb 0.00 in0.0 mm 0.00 in0.0 mm 0.00 in0.0 mm
07:00 AM 32.7°F0.4°C 28.4°F-2.0°C 83% 4.4 mph NE7.1 kmh NE 7.6 mph12.2 kmh 28.80 in975.3 mb 0.00 in0.0 mm 0.00 in0.0 mm 0.00 in0.0 mm
07:05 AM 32.5°F0.3°C 28.4°F-2.0°C 83% 3.7 mph NE6.0 kmh NE 6.5 mph10.5 kmh 28.80 in975.3 mb 0.00 in0.0 mm 0.00 in0.0 mm 0.00 in0.0 mm
07:10 AM 32.4°F0.2°C 28.4°F-2.0°C 83% 3.1 mph NE5.0 kmh NE 6.0 mph9.7 kmh 28.80 in975.3 mb 0.00 in0.0 mm 0.00 in0.0 mm 0.00 in0.0 mm
07:15 AM 32.2°F0.1°C 28.4°F-2.0°C 83% 3.1 mph NNE5.0 kmh NNE 6.0 mph9.7 kmh 28.82 in976.0 mb 0.00 in0.0 mm 0.00 in0.0 mm 0.00 in0.0 mm
07:20 AM 32.2°F0.1°C 28.4°F-2.0°C 83% 2.8 mph NE4.5 kmh NE 4.3 mph6.9 kmh 28.82 in976.0 mb 0.00 in0.0 mm 0.00 in0.0 mm 0.00 in0.0 mm
07:25 AM 32.0°F0.0°C 26.6°F-3.0°C 83% 2.9 mph NNE4.7 kmh NNE 5.6 mph9.0 kmh 28.82 in976.0 mb 0.00 in0.0 mm 0.00 in0.0 mm 0.00 in0.0 mm
07:30 AM 32.0°F0.0°C 26.6°F-3.0°C 83% 2.6 mph NNE4.2 kmh NNE 5.6 mph9.0 kmh 28.62 in969.2 mb 0.00 in0.0 mm 0.00 in0.0 mm 0.00 in0.0 mm
07:35 AM 32.0°F0.0°C 26.6°F-3.0°C 83% 2.6 mph NNE4.2 kmh NNE 4.3 mph6.9 kmh 28.62 in969.2 mb 0.00 in0.0 mm 0.00 in0.0 mm 0.00 in0.0 mm
07:40 AM 31.8°F-0.1°C 26.6°F-3.0°C 83% 2.5 mph NE4.0 kmh NE 4.3 mph6.9 kmh 28.62 in969.2 mb 0.00 in0.0 mm 0.00 in0.0 mm 0.00 in0.0 mm
07:45 AM 31.6°F-0.2°C 26.6°F-3.0°C 83% 2.1 mph NE3.4 kmh NE 3.8 mph6.1 kmh 28.82 in976.0 mb 0.00 in0.0 mm 0.00 in0.0 mm 0.00 in0.0 mm
07:50 AM 31.6°F-0.2°C 26.6°F-3.0°C 83% 2.6 mph NNE4.2 kmh NNE 3.6 mph5.8 kmh 28.82 in976.0 mb 0.00 in0.0 mm 0.00 in0.0 mm 0.00 in0.0 mm
07:55 AM 31.6°F-0.2°C 26.6°F-3.0°C 83% 3.5 mph NNE5.6 kmh NNE 5.6 mph9.0 kmh 28.82 in976.0 mb 0.00 in0.0 mm 0.00 in0.0 mm 0.00 in0.0 mm
08:00 AM 31.6°F-0.2°C 26.6°F-3.0°C 83% 3.4 mph NNE5.5 kmh NNE 5.6 mph9.0 kmh 28.82 in976.0 mb 0.00 in0.0 mm 0.00 in0.0 mm 0.00 in0.0 mm
08:05 AM 31.6°F-0.2°C 26.6°F-3.0°C 83% 2.9 mph NNE4.7 kmh NNE 4.3 mph6.9 kmh 28.82 in976.0 mb 0.00 in0.0 mm 0.00 in0.0 mm 0.00 in0.0 mm
08:10 AM 31.6°F-0.2°C 26.6°F-3.0°C 83% 3.2 mph NNE5.1 kmh NNE 7.4 mph11.9 kmh 28.82 in976.0 mb 0.00 in0.0 mm 0.00 in0.0 mm 0.00 in0.0 mm
08:15 AM 31.6°F-0.2°C 26.6°F-3.0°C 83% 3.4 mph NNE5.5 kmh NNE 7.4 mph11.9 kmh 28.82 in976.0 mb 0.00 in0.0 mm 0.00 in0.0 mm 0.00 in0.0 mm
08:20 AM 31.3°F-0.4°C 24.8°F-4.0°C 82% 2.7 mph NE4.3 kmh NE 4.3 mph6.9 kmh 28.82 in976.0 mb 0.00 in0.0 mm 0.00 in0.0 mm 0.00 in0.0 mm
08:25 AM 31.3°F-0.4°C 24.8°F-4.0°C 82% 2.5 mph NE4.0 kmh NE 3.8 mph6.1 kmh 28.82 in976.0 mb 0.00 in0.0 mm 0.00 in0.0 mm 0.00 in0.0 mm
08:30 AM 31.3°F-0.4°C 24.8°F-4.0°C 82% 1.9 mph NE3.1 kmh NE 3.8 mph6.1 kmh 28.82 in976.0 mb 0.00 in0.0 mm 0.00 in0.0 mm 0.00 in0.0 mm
08:35 AM 31.3°F-0.4°C 24.8°F-4.0°C 82% 2.0 mph NNE3.2 kmh NNE 3.8 mph6.1 kmh 28.82 in976.0 mb 0.00 in0.0 mm 0.00 in0.0 mm 0.00 in0.0 mm
08:40 AM 31.3°F-0.4°C 24.8°F-4.0°C 82% 2.5 mph NE4.0 kmh NE 3.8 mph6.1 kmh 28.82 in976.0 mb 0.00 in0.0 mm 0.00 in0.0 mm 0.00 in0.0 mm
08:45 AM 31.1°F-0.5°C 24.8°F-4.0°C 82% 2.4 mph NE3.9 kmh NE 3.4 mph5.5 kmh 28.65 in970.2 mb 0.00 in0.0 mm 0.00 in0.0 mm 0.00 in0.0 mm
08:50 AM 31.3°F-0.4°C 24.8°F-4.0°C 82% 2.3 mph NE3.7 kmh NE 3.8 mph6.1 kmh 28.65 in970.2 mb 0.00 in0.0 mm 0.00 in0.0 mm 0.00 in0.0 mm
08:55 AM 31.5°F-0.3°C 24.8°F-4.0°C 82% 2.3 mph NNE3.7 kmh NNE 3.8 mph6.1 kmh 28.65 in970.2 mb 0.00 in0.0 mm 0.00 in0.0 mm 0.00 in0.0 mm
09:00 AM 31.6°F-0.2°C 24.8°F-4.0°C 81% 2.7 mph NNE4.3 kmh NNE 4.7 mph7.6 kmh 28.82 in976.0 mb 0.00 in0.0 mm 0.00 in0.0 mm 0.00 in0.0 mm
09:05 AM 32.0°F0.0°C 24.8°F-4.0°C 81% 2.9 mph NNE4.7 kmh NNE 4.7 mph7.6 kmh 28.82 in976.0 mb 0.00 in0.0 mm 0.00 in0.0 mm 0.00 in0.0 mm
09:10 AM 32.0°F0.0°C 24.8°F-4.0°C 81% 2.8 mph N4.5 kmh N 4.0 mph6.4 kmh 28.82 in976.0 mb 0.00 in0.0 mm 0.00 in0.0 mm 0.00 in0.0 mm
09:15 AM 32.2°F0.1°C 26.6°F-3.0°C 81% 3.1 mph N5.0 kmh N 4.3 mph6.9 kmh 28.88 in978.0 mb 0.00 in0.0 mm 0.00 in0.0 mm 0.00 in0.0 mm
09:20 AM 32.2°F0.1°C 26.6°F-3.0°C 81% 2.8 mph N4.5 kmh N 4.3 mph6.9 kmh 28.88 in978.0 mb 0.00 in0.0 mm 0.00 in0.0 mm 0.00 in0.0 mm
09:25 AM 32.5°F0.3°C 28.4°F-2.0°C 81% 2.3 mph NNE3.7 kmh NNE 3.6 mph5.8 kmh 28.88 in978.0 mb 0.00 in0.0 mm 0.00 in0.0 mm 0.00 in0.0 mm
09:30 AM 33.1°F0.6°C 28.4°F-2.0°C 81% 2.9 mph NE4.7 kmh NE 6.0 mph9.7 kmh 28.91 in979.0 mb 0.00 in0.0 mm 0.00 in0.0 mm 0.00 in0.0 mm
09:35 AM 33.3°F0.7°C 28.4°F-2.0°C 80% 3.4 mph NNE5.5 kmh NNE 6.0 mph9.7 kmh 28.91 in979.0 mb 0.00 in0.0 mm 0.00 in0.0 mm 0.00 in0.0 mm
09:40 AM 33.4°F0.8°C 28.4°F-2.0°C 80% 3.0 mph N4.8 kmh N 4.3 mph6.9 kmh 28.91 in979.0 mb 0.00 in0.0 mm 0.00 in0.0 mm 0.00 in0.0 mm
09:45 AM 33.4°F0.8°C 28.4°F-2.0°C 80% 3.4 mph N5.5 kmh N 5.8 mph9.3 kmh 28.88 in978.0 mb 0.00 in0.0 mm 0.00 in0.0 mm 0.00 in0.0 mm
09:50 AM 33.8°F1.0°C 28.4°F-2.0°C 80% 3.7 mph N6.0 kmh N 6.0 mph9.7 kmh 28.88 in978.0 mb 0.00 in0.0 mm 0.00 in0.0 mm 0.00 in0.0 mm
09:55 AM 34.0°F1.1°C 28.4°F-2.0°C 80% 3.4 mph NNE5.5 kmh NNE 6.0 mph9.7 kmh 28.88 in978.0 mb 0.00 in0.0 mm 0.00 in0.0 mm 0.00 in0.0 mm
10:00 AM 34.2°F1.2°C 30.2°F-1.0°C 80% 3.7 mph NE6.0 kmh NE 8.5 mph13.7 kmh 28.91 in979.0 mb 0.00 in0.0 mm 0.00 in0.0 mm 0.00 in0.0 mm
10:05 AM 34.0°F1.1°C 28.4°F-2.0°C 80% 3.2 mph NE5.1 kmh NE 8.5 mph13.7 kmh 28.91 in979.0 mb 0.00 in0.0 mm 0.00 in0.0 mm 0.00 in0.0 mm
10:10 AM 34.3°F1.3°C 30.2°F-1.0°C 80% 2.2 mph NE3.5 kmh NE 4.0 mph6.4 kmh 28.91 in979.0 mb 0.00 in0.0 mm 0.00 in0.0 mm 0.00 in0.0 mm
10:15 AM 34.2°F1.2°C 30.2°F-1.0°C 80% 2.5 mph N4.0 kmh N 6.0 mph9.7 kmh 28.91 in979.0 mb 0.00 in0.0 mm 0.00 in0.0 mm 0.00 in0.0 mm
10:20 AM 34.3°F1.3°C 30.2°F-1.0°C 80% 3.6 mph N5.8 kmh N 6.3 mph10.1 kmh 28.91 in979.0 mb 0.00 in0.0 mm 0.00 in0.0 mm 0.00 in0.0 mm
10:25 AM 34.7°F1.5°C 30.2°F-1.0°C 79% 4.6 mph NNE7.4 kmh NNE 6.3 mph10.1 kmh 28.91 in979.0 mb 0.00 in0.0 mm 0.00 in0.0 mm 0.00 in0.0 mm
10:30 AM 35.1°F1.7°C 30.2°F-1.0°C 79% 4.2 mph NNE6.8 kmh NNE 5.4 mph8.7 kmh 28.88 in978.0 mb 0.00 in0.0 mm 0.00 in0.0 mm 0.00 in0.0 mm
10:35 AM 35.1°F1.7°C 30.2°F-1.0°C 79% 4.7 mph NE7.6 kmh NE 8.7 mph14.0 kmh 28.88 in978.0 mb 0.00 in0.0 mm 0.00 in0.0 mm 0.00 in0.0 mm
10:40 AM 35.1°F1.7°C 30.2°F-1.0°C 79% 5.4 mph NE8.7 kmh NE 9.4 mph15.1 kmh 28.88 in978.0 mb 0.00 in0.0 mm 0.00 in0.0 mm 0.00 in0.0 mm
10:45 AM 35.1°F1.7°C 30.2°F-1.0°C 79% 5.6 mph NE9.0 kmh NE 9.4 mph15.1 kmh 28.91 in979.0 mb 0.00 in0.0 mm 0.00 in0.0 mm 0.00 in0.0 mm
10:50 AM 35.2°F1.8°C 30.2°F-1.0°C 79% 6.1 mph NE9.8 kmh NE 8.5 mph13.7 kmh 28.91 in979.0 mb 0.00 in0.0 mm 0.00 in0.0 mm 0.00 in0.0 mm
10:55 AM 35.4°F1.9°C 30.2°F-1.0°C 79% 6.0 mph ENE9.7 kmh ENE 8.5 mph13.7 kmh 28.91 in979.0 mb 0.00 in0.0 mm 0.00 in0.0 mm 0.00 in0.0 mm
11:00 AM 35.4°F1.9°C 30.2°F-1.0°C 79% 4.9 mph ENE7.9 kmh ENE 7.4 mph11.9 kmh 28.94 in980.0 mb 0.00 in0.0 mm 0.00 in0.0 mm 0.00 in0.0 mm
11:05 AM 35.4°F1.9°C 30.2°F-1.0°C 79% 5.4 mph E8.7 kmh E 9.8 mph15.8 kmh 28.94 in980.0 mb 0.00 in0.0 mm 0.00 in0.0 mm 0.00 in0.0 mm
11:10 AM 35.2°F1.8°C 30.2°F-1.0°C 79% 5.2 mph E8.4 kmh E 9.8 mph15.8 kmh 28.94 in980.0 mb 0.00 in0.0 mm 0.00 in0.0 mm 0.00 in0.0 mm
11:15 AM 35.1°F1.7°C 30.2°F-1.0°C 79% 3.9 mph ENE6.3 kmh ENE 7.4 mph11.9 kmh 28.94 in980.0 mb 0.00 in0.0 mm 0.00 in0.0 mm 0.00 in0.0 mm
11:20 AM 35.4°F1.9°C 30.2°F-1.0°C 79% 2.8 mph NE4.5 kmh NE 4.0 mph6.4 kmh 28.94 in980.0 mb 0.00 in0.0 mm 0.00 in0.0 mm 0.00 in0.0 mm
11:25 AM 35.6°F2.0°C 30.2°F-1.0°C 79% 3.4 mph NE5.5 kmh NE 7.8 mph12.6 kmh 28.94 in980.0 mb 0.00 in0.0 mm 0.00 in0.0 mm 0.00 in0.0 mm
11:30 AM 36.0°F2.2°C 30.2°F-1.0°C 79% 4.6 mph NE7.4 kmh NE 7.8 mph12.6 kmh 28.94 in980.0 mb 0.00 in0.0 mm 0.00 in0.0 mm 0.00 in0.0 mm
11:35 AM 36.3°F2.4°C 30.2°F-1.0°C 79% 7.3 mph ENE11.7 kmh ENE 13.0 mph20.9 kmh 28.94 in980.0 mb 0.00 in0.0 mm 0.00 in0.0 mm 0.00 in0.0 mm
11:40 AM 36.1°F2.3°C 30.2°F-1.0°C 79% 6.8 mph ENE10.9 kmh ENE 13.0 mph20.9 kmh 28.94 in980.0 mb 0.00 in0.0 mm 0.00 in0.0 mm 0.00 in0.0 mm
11:45 AM 35.6°F2.0°C 30.2°F-1.0°C 79% 5.3 mph ENE8.5 kmh ENE 10.5 mph16.9 kmh 28.94 in980.0 mb 0.00 in0.0 mm 0.00 in0.0 mm 0.00 in0.0 mm
11:50 AM 35.8°F2.1°C 30.2°F-1.0°C 78% 6.3 mph ENE10.1 kmh ENE 10.7 mph17.2 kmh 28.94 in980.0 mb 0.00 in0.0 mm 0.00 in0.0 mm 0.00 in0.0 mm
11:55 AM 36.0°F2.2°C 30.2°F-1.0°C 78% 6.4 mph ENE10.3 kmh ENE 10.7 mph17.2 kmh 28.94 in980.0 mb 0.00 in0.0 mm 0.00 in0.0 mm 0.00 in0.0 mm
12:00 PM 36.0°F2.2°C 30.2°F-1.0°C 78% 3.9 mph NE6.3 kmh NE 6.5 mph10.5 kmh 28.94 in980.0 mb 0.00 in0.0 mm 0.00 in0.0 mm 0.00 in0.0 mm
12:05 PM 36.9°F2.7°C 30.2°F-1.0°C 78% 3.9 mph NE6.3 kmh NE 6.5 mph10.5 kmh 28.94 in980.0 mb 0.00 in0.0 mm 0.00 in0.0 mm 0.00 in0.0 mm
12:10 PM 36.9°F2.7°C 30.2°F-1.0°C 78% 4.2 mph NNE6.8 kmh NNE 6.5 mph10.5 kmh 28.94 in980.0 mb 0.00 in0.0 mm 0.00 in0.0 mm 0.00 in0.0 mm
12:15 PM 37.0°F2.8°C 32.0°F0.0°C 77% 4.4 mph NE7.1 kmh NE 10.3 mph16.6 kmh 28.94 in980.0 mb 0.00 in0.0 mm 0.00 in0.0 mm 0.00 in0.0 mm
12:20 PM 37.2°F2.9°C 32.0°F0.0°C 77% 4.8 mph NE7.7 kmh NE 10.3 mph16.6 kmh 28.94 in980.0 mb 0.00 in0.0 mm 0.00 in0.0 mm 0.00 in0.0 mm
12:25 PM 37.6°F3.1°C 32.0°F0.0°C 77% 4.2 mph NE6.8 kmh NE 7.2 mph11.6 kmh 28.94 in980.0 mb 0.00 in0.0 mm 0.00 in0.0 mm 0.00 in0.0 mm
12:30 PM 37.6°F3.1°C 32.0°F0.0°C 77% 3.7 mph NNE6.0 kmh NNE 7.2 mph11.6 kmh 28.94 in980.0 mb 0.00 in0.0 mm 0.00 in0.0 mm 0.00 in0.0 mm
12:35 PM 39.0°F3.9°C 33.8°F1.0°C 77% 4.2 mph N6.8 kmh N 7.6 mph12.2 kmh 28.94 in980.0 mb 0.00 in0.0 mm 0.00 in0.0 mm 0.00 in0.0 mm
12:40 PM 39.6°F4.2°C 33.8°F1.0°C 77% 4.1 mph NNE6.6 kmh NNE 7.6 mph12.2 kmh 28.94 in980.0 mb 0.00 in0.0 mm 0.00 in0.0 mm 0.00 in0.0 mm
12:45 PM 39.7°F4.3°C 33.8°F1.0°C 77% 4.3 mph NNE6.9 kmh NNE 7.4 mph11.9 kmh 28.94 in980.0 mb 0.00 in0.0 mm 0.00 in0.0 mm 0.00 in0.0 mm
12:50 PM 38.5°F3.6°C 32.0°F0.0°C 76% 4.6 mph N7.4 kmh N 7.4 mph11.9 kmh 28.94 in980.0 mb 0.00 in0.0 mm 0.00 in0.0 mm 0.00 in0.0 mm
12:55 PM 38.5°F3.6°C 32.0°F0.0°C 77% 4.2 mph NNE6.8 kmh NNE 6.0 mph9.7 kmh 28.94 in980.0 mb 0.00 in0.0 mm 0.00 in0.0 mm 0.00 in0.0 mm
01:00 PM 37.8°F3.2°C 32.0°F0.0°C 76% 5.6 mph NE9.0 kmh NE 10.7 mph17.2 kmh 28.94 in980.0 mb 0.00 in0.0 mm 0.00 in0.0 mm 0.00 in0.0 mm
01:05 PM 37.6°F3.1°C 30.2°F-1.0°C 76% 5.7 mph NE9.2 kmh NE 10.7 mph17.2 kmh 28.94 in980.0 mb 0.00 in0.0 mm 0.00 in0.0 mm 0.00 in0.0 mm
01:10 PM 37.8°F3.2°C 32.0°F0.0°C 76% 5.8 mph NE9.3 kmh NE 10.7 mph17.2 kmh 28.94 in980.0 mb 0.00 in0.0 mm 0.00 in0.0 mm 0.00 in0.0 mm
01:15 PM 36.9°F2.7°C 30.2°F-1.0°C 76% 5.6 mph NE9.0 kmh NE 9.8 mph15.8 kmh 28.94 in980.0 mb 0.00 in0.0 mm 0.00 in0.0 mm 0.00 in0.0 mm
01:20 PM 36.7°F2.6°C 30.2°F-1.0°C 77% 4.5 mph NE7.2 kmh NE 9.8 mph15.8 kmh 28.94 in980.0 mb 0.11 in2.8 mm 1.32 in33.5 mm 0.11 in2.8 mm
01:25 PM 37.2°F2.9°C 32.0°F0.0°C 77% 4.0 mph NNE6.4 kmh NNE 6.3 mph10.1 kmh 28.94 in980.0 mb 0.11 in2.8 mm 0.00 in0.0 mm 0.11 in2.8 mm
01:30 PM 38.1°F3.4°C 32.0°F0.0°C 77% 4.9 mph N7.9 kmh N 11.0 mph17.7 kmh 28.94 in980.0 mb 0.11 in2.8 mm 0.00 in0.0 mm 0.11 in2.8 mm
01:35 PM 37.4°F3.0°C 30.2°F-1.0°C 76% 5.7 mph N9.2 kmh N 11.9 mph19.2 kmh 28.94 in980.0 mb 0.11 in2.8 mm 0.00 in0.0 mm 0.11 in2.8 mm
01:40 PM 37.4°F3.0°C 30.2°F-1.0°C 76% 4.8 mph NNE7.7 kmh NNE 11.9 mph19.2 kmh 28.94 in980.0 mb 0.11 in2.8 mm 0.00 in0.0 mm 0.11 in2.8 mm
01:45 PM 37.2°F2.9°C 30.2°F-1.0°C 76% 4.6 mph NNE7.4 kmh NNE 7.6 mph12.2 kmh 28.94 in980.0 mb 0.11 in2.8 mm 0.00 in0.0 mm 0.11 in2.8 mm
01:50 PM 36.7°F2.6°C 30.2°F-1.0°C 76% 5.0 mph NNE8.0 kmh NNE 7.6 mph12.2 kmh 28.94 in980.0 mb 0.11 in2.8 mm 0.00 in0.0 mm 0.11 in2.8 mm
01:55 PM 36.5°F2.5°C 30.2°F-1.0°C 77% 4.3 mph N6.9 kmh N 6.3 mph10.1 kmh 28.94 in980.0 mb 0.11 in2.8 mm 0.00 in0.0 mm 0.11 in2.8 mm
02:00 PM 36.5°F2.5°C 30.2°F-1.0°C 77% 5.2 mph N8.4 kmh N 9.6 mph15.4 kmh 28.94 in980.0 mb 0.11 in2.8 mm 0.00 in0.0 mm 0.11 in2.8 mm
02:05 PM 36.7°F2.6°C 30.2°F-1.0°C 77% 4.9 mph NNW7.9 kmh NNW 9.6 mph15.4 kmh 28.94 in980.0 mb 0.11 in2.8 mm 0.00 in0.0 mm 0.11 in2.8 mm
02:10 PM 36.7°F2.6°C 30.2°F-1.0°C 77% 4.3 mph N6.9 kmh N 6.5 mph10.5 kmh 28.94 in980.0 mb 0.11 in2.8 mm 0.00 in0.0 mm 0.11 in2.8 mm
02:15 PM 37.0°F2.8°C 32.0°F0.0°C 77% 4.1 mph N6.6 kmh N 6.5 mph10.5 kmh 28.94 in980.0 mb 0.11 in2.8 mm 0.00 in0.0 mm 0.11 in2.8 mm
02:20 PM 36.7°F2.6°C 30.2°F-1.0°C 77% 3.3 mph N5.3 kmh N 5.8 mph9.3 kmh 28.94 in980.0 mb 0.00 in0.0 mm 0.00 in0.0 mm 0.11 in2.8 mm
02:25 PM 36.3°F2.4°C 30.2°F-1.0°C 77% 4.0 mph N6.4 kmh N 5.8 mph9.3 kmh 28.94 in980.0 mb 0.00 in0.0 mm 0.00 in0.0 mm 0.11 in2.8 mm
02:30 PM 36.1°F2.3°C 30.2°F-1.0°C 77% 4.4 mph N7.1 kmh N 5.8 mph9.3 kmh 28.97 in981.0 mb 0.00 in0.0 mm 0.00 in0.0 mm 0.11 in2.8 mm
02:35 PM 35.8°F2.1°C 30.2°F-1.0°C 77% 5.1 mph N8.2 kmh N 9.8 mph15.8 kmh 28.97 in981.0 mb 0.00 in0.0 mm 0.00 in0.0 mm 0.11 in2.8 mm
02:40 PM 35.4°F1.9°C 30.2°F-1.0°C 78% 4.5 mph N7.2 kmh N 9.8 mph15.8 kmh 28.97 in981.0 mb 0.00 in0.0 mm 0.00 in0.0 mm 0.11 in2.8 mm
02:45 PM 35.2°F1.8°C 28.4°F-2.0°C 78% 2.2 mph N3.5 kmh N 4.3 mph6.9 kmh 28.97 in981.0 mb 0.00 in0.0 mm 0.00 in0.0 mm 0.11 in2.8 mm
02:50 PM 35.2°F1.8°C 28.4°F-2.0°C 78% 1.9 mph N3.1 kmh N 4.0 mph6.4 kmh 28.97 in981.0 mb 0.00 in0.0 mm 0.00 in0.0 mm 0.11 in2.8 mm
02:55 PM 35.2°F1.8°C 30.2°F-1.0°C 79% 3.1 mph NNE5.0 kmh NNE 4.9 mph7.9 kmh 28.97 in981.0 mb 0.00 in0.0 mm 0.00 in0.0 mm 0.11 in2.8 mm
03:00 PM 35.2°F1.8°C 30.2°F-1.0°C 79% 3.3 mph NE5.3 kmh NE 4.9 mph7.9 kmh 28.97 in981.0 mb 0.00 in0.0 mm 0.00 in0.0 mm 0.11 in2.8 mm
03:05 PM 35.4°F1.9°C 30.2°F-1.0°C 79% 2.0 mph NE3.2 kmh NE 4.3 mph6.9 kmh 28.97 in981.0 mb 0.00 in0.0 mm 0.00 in0.0 mm 0.11 in2.8 mm
03:10 PM 35.6°F2.0°C 30.2°F-1.0°C 79% 1.4 mph NNE2.3 kmh NNE 2.5 mph4.0 kmh 28.97 in981.0 mb 0.00 in0.0 mm 0.00 in0.0 mm 0.11 in2.8 mm
03:15 PM 36.0°F2.2°C 30.2°F-1.0°C 79% 2.0 mph N3.2 kmh N 3.4 mph5.5 kmh 28.97 in981.0 mb 0.00 in0.0 mm 0.00 in0.0 mm 0.11 in2.8 mm
03:20 PM 35.8°F2.1°C 30.2°F-1.0°C 79% 2.8 mph N4.5 kmh N 5.4 mph8.7 kmh 28.97 in981.0 mb 0.00 in0.0 mm 0.00 in0.0 mm 0.11 in2.8 mm
03:25 PM 35.8°F2.1°C 30.2°F-1.0°C 79% 2.9 mph N4.7 kmh N 5.4 mph8.7 kmh 28.97 in981.0 mb 0.00 in0.0 mm 0.00 in0.0 mm 0.11 in2.8 mm
03:30 PM 35.6°F2.0°C 30.2°F-1.0°C 79% 2.8 mph NNE4.5 kmh NNE 5.6 mph9.0 kmh 28.97 in981.0 mb 0.00 in0.0 mm 0.00 in0.0 mm 0.11 in2.8 mm
03:35 PM 35.6°F2.0°C 30.2°F-1.0°C 79% 3.1 mph NNE5.0 kmh NNE 5.6 mph9.0 kmh 28.97 in981.0 mb 0.00 in0.0 mm 0.00 in0.0 mm 0.11 in2.8 mm
03:40 PM 35.6°F2.0°C 30.2°F-1.0°C 80% 2.8 mph NNE4.5 kmh NNE 4.0 mph6.4 kmh 28.97 in981.0 mb 0.00 in0.0 mm 0.00 in0.0 mm 0.11 in2.8 mm
03:45 PM 35.2°F1.8°C 30.2°F-1.0°C 80% 2.5 mph NNE4.0 kmh NNE 4.3 mph6.9 kmh 28.91 in979.0 mb 0.00 in0.0 mm 0.00 in0.0 mm 0.11 in2.8 mm
03:50 PM 35.2°F1.8°C 30.2°F-1.0°C 80% 2.6 mph NNE4.2 kmh NNE 4.3 mph6.9 kmh 28.91 in979.0 mb 0.00 in0.0 mm 0.00 in0.0 mm 0.11 in2.8 mm
03:55 PM 35.1°F1.7°C 30.2°F-1.0°C 79% 2.4 mph NNE3.9 kmh NNE 4.9 mph7.9 kmh 28.91 in979.0 mb 0.00 in0.0 mm 0.00 in0.0 mm 0.11 in2.8 mm
04:00 PM 35.1°F1.7°C 30.2°F-1.0°C 79% 2.6 mph N4.2 kmh N 4.9 mph7.9 kmh 28.97 in981.0 mb 0.00 in0.0 mm 0.00 in0.0 mm 0.11 in2.8 mm
04:05 PM 34.9°F1.6°C 30.2°F-1.0°C 79% 2.1 mph N3.4 kmh N 4.0 mph6.4 kmh 28.97 in981.0 mb 0.00 in0.0 mm 0.00 in0.0 mm 0.11 in2.8 mm
04:10 PM 34.7°F1.5°C 30.2°F-1.0°C 79% 1.7 mph N2.7 kmh N 3.4 mph5.5 kmh 28.97 in981.0 mb 0.00 in0.0 mm 0.00 in0.0 mm 0.11 in2.8 mm
04:15 PM 34.5°F1.4°C 28.4°F-2.0°C 79% 1.9 mph N3.1 kmh N 3.4 mph5.5 kmh 28.97 in981.0 mb 0.00 in0.0 mm 0.00 in0.0 mm 0.11 in2.8 mm
04:20 PM 34.3°F1.3°C 28.4°F-2.0°C 79% 2.1 mph N3.4 kmh N 2.9 mph4.7 kmh 28.97 in981.0 mb 0.00 in0.0 mm 0.00 in0.0 mm 0.11 in2.8 mm
04:25 PM 34.3°F1.3°C 28.4°F-2.0°C 79% 2.1 mph N3.4 kmh N 3.1 mph5.0 kmh 28.97 in981.0 mb 0.00 in0.0 mm 0.00 in0.0 mm 0.11 in2.8 mm
04:30 PM 34.5°F1.4°C 28.4°F-2.0°C 79% 2.3 mph NE3.7 kmh NE 3.4 mph5.5 kmh 29.00 in982.1 mb 0.00 in0.0 mm 0.00 in0.0 mm 0.11 in2.8 mm
04:35 PM 34.7°F1.5°C 30.2°F-1.0°C 79% 4.5 mph NE7.2 kmh NE 9.8 mph15.8 kmh 29.00 in982.1 mb 0.00 in0.0 mm 0.00 in0.0 mm 0.11 in2.8 mm
04:40 PM 34.9°F1.6°C 30.2°F-1.0°C 79% 5.7 mph NE9.2 kmh NE 9.8 mph15.8 kmh 29.00 in982.1 mb 0.00 in0.0 mm 0.00 in0.0 mm 0.11 in2.8 mm
04:45 PM 34.9°F1.6°C 30.2°F-1.0°C 79% 5.5 mph NE8.9 kmh NE 8.7 mph14.0 kmh 29.00 in982.1 mb 0.00 in0.0 mm 0.00 in0.0 mm 0.11 in2.8 mm
04:50 PM 34.7°F1.5°C 30.2°F-1.0°C 79% 7.6 mph NE12.2 kmh NE 15.2 mph24.5 kmh 29.00 in982.1 mb 0.00 in0.0 mm 0.00 in0.0 mm 0.11 in2.8 mm
04:55 PM 34.5°F1.4°C 30.2°F-1.0°C 80% 7.8 mph NE12.6 kmh NE 15.2 mph24.5 kmh 29.00 in982.1 mb 0.00 in0.0 mm 0.00 in0.0 mm 0.11 in2.8 mm
05:00 PM 34.0°F1.1°C 28.4°F-2.0°C 80% 5.7 mph N9.2 kmh N 8.7 mph14.0 kmh 29.00 in982.1 mb 0.00 in0.0 mm 0.00 in0.0 mm 0.11 in2.8 mm
05:05 PM 33.8°F1.0°C 28.4°F-2.0°C 80% 3.6 mph N5.8 kmh N 7.4 mph11.9 kmh 29.00 in982.1 mb 0.00 in0.0 mm 0.00 in0.0 mm 0.11 in2.8 mm
05:10 PM 33.6°F0.9°C 28.4°F-2.0°C 80% 2.6 mph N4.2 kmh N 4.0 mph6.4 kmh 29.00 in982.1 mb 0.00 in0.0 mm 0.00 in0.0 mm 0.11 in2.8 mm
05:15 PM 33.3°F0.7°C 28.4°F-2.0°C 81% 2.4 mph N3.9 kmh N 4.0 mph6.4 kmh 29.00 in982.1 mb 0.00 in0.0 mm 0.00 in0.0 mm 0.11 in2.8 mm
05:20 PM 33.3°F0.7°C 28.4°F-2.0°C 81% 2.4 mph N3.9 kmh N 3.6 mph5.8 kmh 29.00 in982.1 mb 0.00 in0.0 mm 0.00 in0.0 mm 0.11 in2.8 mm
05:25 PM 33.1°F0.6°C 28.4°F-2.0°C 81% 2.3 mph N3.7 kmh N 3.6 mph5.8 kmh 29.00 in982.1 mb 0.00 in0.0 mm 0.00 in0.0 mm 0.11 in2.8 mm
05:30 PM 32.9°F0.5°C 28.4°F-2.0°C 81% 2.9 mph NNE4.7 kmh NNE 4.9 mph7.9 kmh 28.97 in981.0 mb 0.00 in0.0 mm 0.00 in0.0 mm 0.11 in2.8 mm
05:35 PM 32.7°F0.4°C 28.4°F-2.0°C 81% 2.6 mph NNE4.2 kmh NNE 4.9 mph7.9 kmh 28.97 in981.0 mb 0.00 in0.0 mm 0.00 in0.0 mm 0.11 in2.8 mm
05:40 PM 32.5°F0.3°C 28.4°F-2.0°C 81% 1.9 mph N3.1 kmh N 3.6 mph5.8 kmh 28.97 in981.0 mb 0.00 in0.0 mm 0.00 in0.0 mm 0.11 in2.8 mm
05:45 PM 32.5°F0.3°C 28.4°F-2.0°C 81% 2.7 mph N4.3 kmh N 5.4 mph8.7 kmh 29.00 in982.1 mb 0.00 in0.0 mm 0.00 in0.0 mm 0.11 in2.8 mm
05:50 PM 32.5°F0.3°C 28.4°F-2.0°C 81% 3.4 mph N5.5 kmh N 6.0 mph9.7 kmh 29.00 in982.1 mb 0.00 in0.0 mm 0.00 in0.0 mm 0.11 in2.8 mm
05:55 PM 32.7°F0.4°C 28.4°F-2.0°C 81% 4.1 mph NNE6.6 kmh NNE 6.5 mph10.5 kmh 29.00 in982.1 mb 0.00 in0.0 mm 0.00 in0.0 mm 0.11 in2.8 mm
06:00 PM 32.9°F0.5°C 28.4°F-2.0°C 81% 4.5 mph NE7.2 kmh NE 7.2 mph11.6 kmh 29.00 in982.1 mb 0.00 in0.0 mm 0.00 in0.0 mm 0.11 in2.8 mm
06:05 PM 33.1°F0.6°C 28.4°F-2.0°C 82% 4.2 mph NE6.8 kmh NE 7.2 mph11.6 kmh 29.00 in982.1 mb 0.00 in0.0 mm 0.00 in0.0 mm 0.11 in2.8 mm
06:10 PM 33.1°F0.6°C 28.4°F-2.0°C 82% 2.6 mph NE4.2 kmh NE 4.7 mph7.6 kmh 29.00 in982.1 mb 0.00 in0.0 mm 0.00 in0.0 mm 0.11 in2.8 mm
06:15 PM 32.9°F0.5°C 28.4°F-2.0°C 82% 1.2 mph NE1.9 kmh NE 2.7 mph4.3 kmh 29.00 in982.1 mb 0.00 in0.0 mm 0.00 in0.0 mm 0.11 in2.8 mm
06:20 PM 32.5°F0.3°C 28.4°F-2.0°C 82% 0.5 mph NE0.8 kmh NE 2.5 mph4.0 kmh 29.00 in982.1 mb 0.00 in0.0 mm 0.00 in0.0 mm 0.11 in2.8 mm
06:25 PM 32.4°F0.2°C 28.4°F-2.0°C 82% 1.0 mph N1.6 kmh N 3.8 mph6.1 kmh 29.00 in982.1 mb 0.00 in0.0 mm 0.00 in0.0 mm 0.11 in2.8 mm
06:30 PM 32.5°F0.3°C 28.4°F-2.0°C 82% 1.8 mph N2.9 kmh N 3.8 mph6.1 kmh 29.00 in982.1 mb 0.00 in0.0 mm 0.00 in0.0 mm 0.11 in2.8 mm
06:35 PM 32.7°F0.4°C 28.4°F-2.0°C 82% 2.4 mph NNE3.9 kmh NNE 3.6 mph5.8 kmh 29.00 in982.1 mb 0.00 in0.0 mm 0.00 in0.0 mm 0.11 in2.8 mm
06:40 PM 33.1°F0.6°C 28.4°F-2.0°C 82% 3.4 mph NE5.5 kmh NE 9.4 mph15.1 kmh 29.00 in982.1 mb 0.00 in0.0 mm 0.00 in0.0 mm 0.11 in2.8 mm
06:45 PM 33.1°F0.6°C 28.4°F-2.0°C 82% 4.3 mph ENE6.9 kmh ENE 9.4 mph15.1 kmh 29.00 in982.1 mb 0.00 in0.0 mm 0.00 in0.0 mm 0.11 in2.8 mm
06:50 PM 32.9°F0.5°C 28.4°F-2.0°C 82% 3.3 mph ENE5.3 kmh ENE 5.6 mph9.0 kmh 29.00 in982.1 mb 0.00 in0.0 mm 0.00 in0.0 mm 0.11 in2.8 mm
06:55 PM 32.5°F0.3°C 28.4°F-2.0°C 82% 1.4 mph ENE2.3 kmh ENE 3.8 mph6.1 kmh 29.00 in982.1 mb 0.00 in0.0 mm 0.00 in0.0 mm 0.11 in2.8 mm
07:00 PM 32.2°F0.1°C 28.4°F-2.0°C 82% 0.1 mph NE0.2 kmh NE 1.1 mph1.8 kmh 29.00 in982.1 mb 0.00 in0.0 mm 0.00 in0.0 mm 0.11 in2.8 mm
07:05 PM 32.0°F0.0°C 26.6°F-3.0°C 83% Calm Calm -- 29.00 in982.1 mb 0.00 in0.0 mm 0.00 in0.0 mm 0.11 in2.8 mm
07:10 PM 31.8°F-0.1°C 26.6°F-3.0°C 83% Calm Calm -- 29.00 in982.1 mb 0.00 in0.0 mm 0.00 in0.0 mm 0.11 in2.8 mm
07:15 PM 31.6°F-0.2°C 26.6°F-3.0°C 83% 0.1 mph ENE0.2 kmh ENE 1.3 mph2.1 kmh 29.00 in982.1 mb 0.00 in0.0 mm 0.00 in0.0 mm 0.11 in2.8 mm
07:20 PM 31.6°F-0.2°C 26.6°F-3.0°C 83% 0.2 mph S0.3 kmh S 1.3 mph2.1 kmh 29.00 in982.1 mb 0.00 in0.0 mm 0.00 in0.0 mm 0.11 in2.8 mm
07:25 PM 31.5°F-0.3°C 24.8°F-4.0°C 83% 0.4 mph SW0.6 kmh SW 1.3 mph2.1 kmh 29.00 in982.1 mb 0.00 in0.0 mm 0.00 in0.0 mm 0.11 in2.8 mm
07:30 PM 32.0°F0.0°C 26.6°F-3.0°C 83% 0.5 mph SW0.8 kmh SW 1.3 mph2.1 kmh 29.00 in982.1 mb 0.00 in0.0 mm 0.00 in0.0 mm 0.11 in2.8 mm
07:35 PM 32.0°F0.0°C 26.6°F-3.0°C 83% 0.4 mph SW0.6 kmh SW 0.9 mph1.4 kmh 29.00 in982.1 mb 0.00 in0.0 mm 0.00 in0.0 mm 0.11 in2.8 mm
07:40 PM 32.0°F0.0°C 26.6°F-3.0°C 83% 0.4 mph SW0.6 kmh SW 0.9 mph1.4 kmh 29.00 in982.1 mb 0.00 in0.0 mm 0.00 in0.0 mm 0.11 in2.8 mm
07:45 PM 32.0°F0.0°C 26.6°F-3.0°C 83% 0.4 mph SW0.6 kmh SW 1.1 mph1.8 kmh 29.03 in983.1 mb 0.00 in0.0 mm 0.00 in0.0 mm 0.11 in2.8 mm
07:50 PM 32.0°F0.0°C 26.6°F-3.0°C 83% 0.5 mph SW0.8 kmh SW 1.6 mph2.6 kmh 29.03 in983.1 mb 0.00 in0.0 mm 0.00 in0.0 mm 0.11 in2.8 mm
07:55 PM 32.0°F0.0°C 26.6°F-3.0°C 83% 1.4 mph WSW2.3 kmh WSW 4.0 mph6.4 kmh 29.03 in983.1 mb 0.00 in0.0 mm 0.00 in0.0 mm 0.11 in2.8 mm
08:00 PM 32.2°F0.1°C 28.4°F-2.0°C 83% 2.1 mph W3.4 kmh W 4.0 mph6.4 kmh 29.03 in983.1 mb 0.00 in0.0 mm 0.00 in0.0 mm 0.11 in2.8 mm
08:05 PM 32.2°F0.1°C 28.4°F-2.0°C 83% 1.3 mph WNW2.1 kmh WNW 2.9 mph4.7 kmh 29.03 in983.1 mb 0.00 in0.0 mm 0.00 in0.0 mm 0.11 in2.8 mm
08:10 PM 32.0°F0.0°C 26.6°F-3.0°C 83% 0.5 mph NW0.8 kmh NW 3.6 mph5.8 kmh 29.03 in983.1 mb 0.00 in0.0 mm 0.00 in0.0 mm 0.11 in2.8 mm
08:15 PM 32.0°F0.0°C 26.6°F-3.0°C 83% 0.4 mph NW0.6 kmh NW 3.6 mph5.8 kmh 29.03 in983.1 mb 0.00 in0.0 mm 0.00 in0.0 mm 0.11 in2.8 mm
08:20 PM 31.6°F-0.2°C 26.6°F-3.0°C 83% 0.1 mph E0.2 kmh E 0.9 mph1.4 kmh 29.03 in983.1 mb 0.00 in0.0 mm 0.00 in0.0 mm 0.11 in2.8 mm
08:25 PM 31.3°F-0.4°C 24.8°F-4.0°C 83% Calm Calm -- 29.03 in983.1 mb 0.00 in0.0 mm 0.00 in0.0 mm 0.11 in2.8 mm
08:30 PM 30.9°F-0.6°C 24.8°F-4.0°C 83% Calm Calm -- 29.03 in983.1 mb 0.00 in0.0 mm 0.00 in0.0 mm 0.11 in2.8 mm
08:35 PM 30.7°F-0.7°C 24.8°F-4.0°C 83% Calm Calm -- 29.03 in983.1 mb 0.00 in0.0 mm 0.00 in0.0 mm 0.11 in2.8 mm
08:40 PM 30.7°F-0.7°C 24.8°F-4.0°C 83% 0.2 mph E0.3 kmh E 0.9 mph1.4 kmh 29.03 in983.1 mb 0.00 in0.0 mm 0.00 in0.0 mm 0.11 in2.8 mm
08:45 PM 30.6°F-0.8°C 24.8°F-4.0°C 83% 0.4 mph E0.6 kmh E 1.3 mph2.1 kmh 29.06 in984.1 mb 0.00 in0.0 mm 0.00 in0.0 mm 0.11 in2.8 mm
08:50 PM 30.6°F-0.8°C 24.8°F-4.0°C 83% 0.5 mph NW0.8 kmh NW 1.3 mph2.1 kmh 29.06 in984.1 mb 0.00 in0.0 mm 0.00 in0.0 mm 0.11 in2.8 mm
08:55 PM 30.6°F-0.8°C 24.8°F-4.0°C 83% 0.3 mph WNW0.5 kmh WNW 1.3 mph2.1 kmh 29.06 in984.1 mb 0.00 in0.0 mm 0.00 in0.0 mm 0.11 in2.8 mm
09:00 PM 30.6°F-0.8°C 24.8°F-4.0°C 83% Calm Calm -- 29.06 in984.1 mb 0.00 in0.0 mm 0.00 in0.0 mm 0.11 in2.8 mm
09:05 PM 30.6°F-0.8°C 24.8°F-4.0°C 83% 0.3 mph WNW0.5 kmh WNW 0.9 mph1.4 kmh 29.06 in984.1 mb 0.00 in0.0 mm 0.00 in0.0 mm 0.11 in2.8 mm
09:10 PM 30.7°F-0.7°C 24.8°F-4.0°C 83% 0.6 mph WNW1.0 kmh WNW 1.1 mph1.8 kmh 29.06 in984.1 mb 0.00 in0.0 mm 0.00 in0.0 mm 0.11 in2.8 mm
09:15 PM 30.9°F-0.6°C 24.8°F-4.0°C 83% 0.7 mph WNW1.1 kmh WNW 1.6 mph2.6 kmh 29.00 in982.1 mb 0.00 in0.0 mm 0.00 in0.0 mm 0.11 in2.8 mm
09:20 PM 30.9°F-0.6°C 24.8°F-4.0°C 83% 1.0 mph NW1.6 kmh NW 1.6 mph2.6 kmh 29.00 in982.1 mb 0.00 in0.0 mm 0.00 in0.0 mm 0.11 in2.8 mm
09:25 PM 31.1°F-0.5°C 24.8°F-4.0°C 83% 1.2 mph NW1.9 kmh NW 1.6 mph2.6 kmh 29.00 in982.1 mb 0.00 in0.0 mm 0.00 in0.0 mm 0.11 in2.8 mm
09:30 PM 31.1°F-0.5°C 24.8°F-4.0°C 84% 1.1 mph NNW1.8 kmh NNW 1.6 mph2.6 kmh 29.00 in982.1 mb 0.00 in0.0 mm 0.00 in0.0 mm 0.11 in2.8 mm
09:35 PM 30.9°F-0.6°C 24.8°F-4.0°C 84% 0.4 mph N0.6 kmh N 1.3 mph2.1 kmh 29.00 in982.1 mb 0.00 in0.0 mm 0.00 in0.0 mm 0.11 in2.8 mm
09:40 PM 30.9°F-0.6°C 24.8°F-4.0°C 84% 0.1 mph NNW0.2 kmh NNW 1.1 mph1.8 kmh 29.00 in982.1 mb 0.00 in0.0 mm 0.00 in0.0 mm 0.11 in2.8 mm
09:45 PM 30.9°F-0.6°C 24.8°F-4.0°C 83% 0.5 mph N0.8 kmh N 2.2 mph3.5 kmh 29.00 in982.1 mb 0.00 in0.0 mm 0.00 in0.0 mm 0.11 in2.8 mm
09:50 PM 31.1°F-0.5°C 24.8°F-4.0°C 83% 1.0 mph N1.6 kmh N 2.2 mph3.5 kmh 29.00 in982.1 mb 0.00 in0.0 mm 0.00 in0.0 mm 0.11 in2.8 mm
09:55 PM 31.3°F-0.4°C 26.6°F-3.0°C 84% 1.1 mph NNW1.8 kmh NNW 2.5 mph4.0 kmh 29.00 in982.1 mb 0.00 in0.0 mm 0.00 in0.0 mm 0.11 in2.8 mm
10:00 PM 31.5°F-0.3°C 26.6°F-3.0°C 84% 1.2 mph NNW1.9 kmh NNW 2.5 mph4.0 kmh 29.00 in982.1 mb 0.00 in0.0 mm 0.00 in0.0 mm 0.11 in2.8 mm
10:05 PM 31.1°F-0.5°C 24.8°F-4.0°C 84% 0.8 mph N1.3 kmh N 2.0 mph3.2 kmh 29.00 in982.1 mb 0.00 in0.0 mm 0.00 in0.0 mm 0.11 in2.8 mm
10:10 PM 30.9°F-0.6°C 24.8°F-4.0°C 84% 0.8 mph NNE1.3 kmh NNE 2.2 mph3.5 kmh 29.00 in982.1 mb 0.00 in0.0 mm 0.00 in0.0 mm 0.11 in2.8 mm
10:15 PM 30.7°F-0.7°C 24.8°F-4.0°C 84% 0.8 mph NNE1.3 kmh NNE 2.2 mph3.5 kmh 28.97 in981.0 mb 0.00 in0.0 mm 0.00 in0.0 mm 0.11 in2.8 mm
10:20 PM 30.4°F-0.9°C 24.8°F-4.0°C 84% 0.2 mph N0.3 kmh N 1.1 mph1.8 kmh 28.97 in981.0 mb 0.00 in0.0 mm 0.00 in0.0 mm 0.11 in2.8 mm
10:25 PM 30.4°F-0.9°C 24.8°F-4.0°C 84% 0.6 mph N1.0 kmh N 2.2 mph3.5 kmh 28.97 in981.0 mb 0.00 in0.0 mm 0.00 in0.0 mm 0.11 in2.8 mm
10:30 PM 30.4°F-0.9°C 24.8°F-4.0°C 84% 0.9 mph N1.4 kmh N 2.2 mph3.5 kmh 29.00 in982.1 mb 0.00 in0.0 mm 0.00 in0.0 mm 0.11 in2.8 mm
10:35 PM 30.6°F-0.8°C 24.8°F-4.0°C 84% 1.1 mph NNW1.8 kmh NNW 2.5 mph4.0 kmh 29.00 in982.1 mb 0.00 in0.0 mm 0.00 in0.0 mm 0.11 in2.8 mm
10:40 PM 30.6°F-0.8°C 24.8°F-4.0°C 84% 1.0 mph NNW1.6 kmh NNW 2.5 mph4.0 kmh 29.00 in982.1 mb 0.00 in0.0 mm 0.00 in0.0 mm 0.11 in2.8 mm
10:45 PM 30.7°F-0.7°C 24.8°F-4.0°C 84% 0.6 mph N1.0 kmh N 1.3 mph2.1 kmh 29.03 in983.1 mb 0.00 in0.0 mm 0.00 in0.0 mm 0.11 in2.8 mm
10:50 PM 30.6°F-0.8°C 24.8°F-4.0°C 84% 0.4 mph NNE0.6 kmh NNE 1.3 mph2.1 kmh 29.03 in983.1 mb 0.00 in0.0 mm 0.00 in0.0 mm 0.11 in2.8 mm
10:55 PM 30.2°F-1.0°C 24.8°F-4.0°C 84% 0.2 mph NE0.3 kmh NE 1.1 mph1.8 kmh 29.03 in983.1 mb 0.00 in0.0 mm 0.00 in0.0 mm 0.11 in2.8 mm
11:00 PM 29.8°F-1.2°C 24.8°F-4.0°C 84% 0.2 mph NE0.3 kmh NE 1.1 mph1.8 kmh 29.03 in983.1 mb 0.00 in0.0 mm 0.00 in0.0 mm 0.11 in2.8 mm
11:05 PM 29.5°F-1.4°C 23.0°F-5.0°C 83% Calm Calm -- 29.03 in983.1 mb 0.00 in0.0 mm 0.00 in0.0 mm 0.11 in2.8 mm
11:10 PM 29.5°F-1.4°C 23.0°F-5.0°C 83% 0.1 mph NE0.2 kmh NE 0.9 mph1.4 kmh 29.03 in983.1 mb 0.00 in0.0 mm 0.00 in0.0 mm 0.11 in2.8 mm
11:15 PM 29.3°F-1.5°C 23.0°F-5.0°C 83% 0.1 mph NE0.2 kmh NE 0.9 mph1.4 kmh 29.03 in983.1 mb 0.00 in0.0 mm 0.00 in0.0 mm 0.11 in2.8 mm
11:20 PM 29.5°F-1.4°C 23.0°F-5.0°C 83% 0.4 mph NE0.6 kmh NE 1.1 mph1.8 kmh 29.03 in983.1 mb 0.00 in0.0 mm 0.00 in0.0 mm 0.11 in2.8 mm
11:25 PM 28.9°F-1.7°C 23.0°F-5.0°C 83% 0.5 mph NE0.8 kmh NE 1.1 mph1.8 kmh 29.03 in983.1 mb 0.00 in0.0 mm 0.00 in0.0 mm 0.11 in2.8 mm
11:30 PM 28.9°F-1.7°C 23.0°F-5.0°C 83% 0.2 mph NE0.3 kmh NE 0.9 mph1.4 kmh 29.03 in983.1 mb 0.00 in0.0 mm 0.00 in0.0 mm 0.11 in2.8 mm
11:35 PM 29.1°F-1.6°C 23.0°F-5.0°C 83% 0.5 mph NE0.8 kmh NE 1.6 mph2.6 kmh 29.03 in983.1 mb 0.00 in0.0 mm 0.00 in0.0 mm 0.11 in2.8 mm
11:40 PM 29.5°F-1.4°C 23.0°F-5.0°C 83% 1.2 mph NE1.9 kmh NE 2.5 mph4.0 kmh 29.03 in983.1 mb 0.00 in0.0 mm 0.00 in0.0 mm 0.11 in2.8 mm
11:45 PM 29.3°F-1.5°C 23.0°F-5.0°C 84% 1.1 mph NE1.8 kmh NE 2.5 mph4.0 kmh 29.03 in983.1 mb 0.00 in0.0 mm 0.00 in0.0 mm 0.11 in2.8 mm
11:50 PM 29.1°F-1.6°C 23.0°F-5.0°C 84% 0.6 mph NE1.0 kmh NE 1.3 mph2.1 kmh 29.03 in983.1 mb 0.00 in0.0 mm 0.00 in0.0 mm 0.11 in2.8 mm
11:55 PM 29.3°F-1.5°C 23.0°F-5.0°C 84% 0.6 mph NE1.0 kmh NE 1.3 mph2.1 kmh 29.03 in983.1 mb 0.00 in0.0 mm 0.00 in0.0 mm 0.11 in2.8 mm